Time;durP1;ratioP1;P1;durP2;ratioP2;P2;SDS_P1;SDS_P2;PMS_P1;PMS_P2;Temp;Humidity;BMP_temperature;BMP_pressure;BME280_temperature;BME280_humidity;BME280_pressure;Samples;Min_cycle;Max_cycle;Signal;HPM_P1;HPM_P2
2022/06/29 00:00:06;;;;;;;20.53;19.13;;;18.70;99.90;;;;;;4991631;28;20457;-77
2022/06/29 00:02:33;;;;;;;21.13;19.63;;;18.70;99.90;;;;;;4991524;28;20790;-80
2022/06/29 00:05:00;;;;;;;21.50;20.03;;;18.70;99.90;;;;;;4991839;28;20458;-80
2022/06/29 00:07:27;;;;;;;22.67;20.70;;;18.70;99.90;;;;;;4991639;28;20450;-80
2022/06/29 00:09:55;;;;;;;22.33;20.80;;;18.70;99.90;;;;;;4992163;28;20454;-79
2022/06/29 00:12:21;;;;;;;21.87;20.17;;;18.70;99.90;;;;;;4991863;28;20514;-79
2022/06/29 00:14:48;;;;;;;21.40;20.10;;;18.60;99.90;;;;;;4991438;28;20515;-79
2022/06/29 00:17:15;;;;;;;21.07;19.77;;;18.60;99.90;;;;;;4991537;28;20794;-79
2022/06/29 00:19:42;;;;;;;21.67;20.27;;;18.60;99.90;;;;;;4991692;28;20451;-79
2022/06/29 00:22:10;;;;;;;22.37;21.07;;;18.60;99.90;;;;;;4991764;28;20517;-79
2022/06/29 00:24:36;;;;;;;22.20;20.47;;;18.60;99.90;;;;;;4991557;28;20960;-79
2022/06/29 00:27:05;;;;;;;21.30;20.00;;;18.50;99.90;;;;;;4991759;28;20466;-78
2022/06/29 00:29:32;;;;;;;22.87;21.37;;;18.40;99.90;;;;;;4991167;28;20459;-77
2022/06/29 00:31:58;;;;;;;21.03;19.83;;;18.30;99.90;;;;;;4991427;28;20827;-78
2022/06/29 00:34:25;;;;;;;21.10;19.80;;;18.30;99.90;;;;;;4991247;28;20901;-79
2022/06/29 00:36:52;;;;;;;20.20;19.00;;;18.30;99.90;;;;;;4991563;28;20454;-79
2022/06/29 00:39:18;;;;;;;21.90;20.50;;;18.30;99.90;;;;;;4991835;28;20451;-82
2022/06/29 00:41:47;;;;;;;24.00;22.17;;;18.30;99.90;;;;;;4991291;28;20964;-79
2022/06/29 00:44:16;;;;;;;24.37;22.50;;;18.30;99.90;;;;;;4991022;28;20451;-79
2022/06/29 00:46:48;;;;;;;23.60;21.90;;;18.30;99.90;;;;;;4991320;28;20801;-79
2022/06/29 00:49:16;;;;;;;24.10;22.20;;;18.30;99.90;;;;;;4991263;28;20645;-79
2022/06/29 00:51:46;;;;;;;22.83;21.00;;;18.30;99.90;;;;;;4991262;28;20509;-79
2022/06/29 00:54:18;;;;;;;21.30;20.00;;;18.30;99.90;;;;;;4990923;28;21000;-80
2022/06/29 00:56:44;;;;;;;21.47;19.93;;;18.20;99.90;;;;;;4991245;28;20554;-79
2022/06/29 00:59:17;;;;;;;22.27;20.97;;;18.20;99.90;;;;;;4991110;28;20458;-79
2022/06/29 01:01:43;;;;;;;22.87;21.47;;;18.10;99.90;;;;;;4990938;28;20513;-79
2022/06/29 01:04:10;;;;;;;23.63;22.23;;;18.00;99.90;;;;;;4991350;28;20451;-78
2022/06/29 01:06:38;;;;;;;21.33;20.03;;;18.00;99.90;;;;;;4991139;28;20554;-79
2022/06/29 01:09:05;;;;;;;23.23;21.70;;;18.10;99.90;;;;;;4991250;28;20450;-79
2022/06/29 01:11:32;;;;;;;21.57;20.37;;;18.10;99.90;;;;;;4992667;28;20474;-80
2022/06/29 01:13:59;;;;;;;22.20;20.80;;;18.10;99.90;;;;;;4994677;28;20832;-79
2022/06/29 01:16:29;;;;;;;22.33;20.57;;;18.10;99.90;;;;;;4994681;28;20453;-79
2022/06/29 01:18:56;;;;;;;22.73;21.10;;;18.10;99.90;;;;;;4994784;28;20459;-79
2022/06/29 01:21:23;;;;;;;22.90;21.50;;;18.10;99.90;;;;;;4995216;28;20446;-79
2022/06/29 01:23:51;;;;;;;21.10;19.80;;;18.10;99.90;;;;;;4994663;28;20486;-79
2022/06/29 01:26:18;;;;;;;22.83;21.10;;;18.10;99.90;;;;;;4994569;28;20463;-79
2022/06/29 01:28:46;;;;;;;21.80;20.50;;;18.10;99.90;;;;;;4994295;28;20473;-79
2022/06/29 01:31:16;;;;;;;21.43;20.20;;;18.00;99.90;;;;;;4993675;28;20478;-80
2022/06/29 01:33:43;;;;;;;22.33;20.90;;;17.90;99.90;;;;;;4994298;28;20490;-79
2022/06/29 01:36:10;;;;;;;21.67;20.43;;;17.90;99.90;;;;;;4994499;28;20450;-80
2022/06/29 01:38:37;;;;;;;21.53;20.10;;;18.00;99.90;;;;;;4994429;28;20466;-79
2022/06/29 01:41:06;;;;;;;22.20;20.70;;;17.90;99.90;;;;;;4994443;28;20457;-79
2022/06/29 01:43:33;;;;;;;22.70;21.30;;;17.80;99.90;;;;;;4994211;28;20454;-79
2022/06/29 01:46:00;;;;;;;21.33;20.03;;;17.80;99.90;;;;;;4994248;28;20909;-79
2022/06/29 01:48:26;;;;;;;23.37;21.70;;;17.90;99.90;;;;;;4994269;28;20451;-79
2022/06/29 01:50:53;;;;;;;21.70;20.40;;;17.90;99.90;;;;;;4994349;28;20447;-79
2022/06/29 01:53:20;;;;;;;20.60;19.10;;;17.90;99.90;;;;;;4994005;28;20826;-79
2022/06/29 01:55:47;;;;;;;21.57;20.27;;;17.90;99.90;;;;;;4994190;28;20514;-79
2022/06/29 01:58:15;;;;;;;21.10;19.90;;;17.90;99.90;;;;;;4993803;28;20462;-79
2022/06/29 02:00:43;;;;;;;21.50;20.10;;;17.80;99.90;;;;;;4991138;28;20869;-80
2022/06/29 02:03:10;;;;;;;22.47;20.87;;;17.80;99.90;;;;;;4974866;28;20456;-79
2022/06/29 02:05:37;;;;;;;22.20;20.77;;;17.80;99.90;;;;;;4974614;28;20461;-79
2022/06/29 02:08:04;;;;;;;22.83;21.60;;;17.80;99.90;;;;;;4974667;28;20452;-76
2022/06/29 02:10:31;;;;;;;22.40;21.20;;;17.70;99.90;;;;;;4974473;28;20456;-77
2022/06/29 02:12:57;;;;;;;22.20;20.90;;;17.70;99.90;;;;;;4974162;28;20997;-77
2022/06/29 02:15:26;;;;;;;22.10;20.80;;;17.70;99.90;;;;;;4975031;28;20454;-80
2022/06/29 02:17:53;;;;;;;22.60;21.30;;;17.70;99.90;;;;;;4974583;28;20494;-81
2022/06/29 02:20:20;;;;;;;22.77;21.47;;;17.70;99.90;;;;;;4974580;28;20460;-80
2022/06/29 02:22:46;;;;;;;22.90;21.50;;;17.70;99.90;;;;;;4974172;28;20456;-79
2022/06/29 02:25:13;;;;;;;24.17;22.67;;;17.70;99.90;;;;;;4974053;28;20507;-80
2022/06/29 02:27:40;;;;;;;22.33;20.73;;;17.70;99.90;;;;;;4974148;28;20474;-79
2022/06/29 02:30:09;;;;;;;23.20;21.80;;;17.70;99.90;;;;;;4973905;28;20479;-81
2022/06/29 02:35:21;;;;;;;21.70;19.97;;;17.70;99.90;;;;;;4974211;28;20447;-82
2022/06/29 02:37:48;;;;;;;22.80;21.40;;;17.70;99.90;;;;;;4974172;28;20451;-80
2022/06/29 02:40:15;;;;;;;21.97;20.67;;;17.70;99.90;;;;;;4974136;28;20443;-79
2022/06/29 02:42:42;;;;;;;22.40;21.03;;;17.70;99.90;;;;;;4973589;28;20459;-80
2022/06/29 02:45:09;;;;;;;23.07;21.77;;;17.70;99.90;;;;;;4974082;28;20458;-80
2022/06/29 02:47:37;;;;;;;23.17;21.73;;;17.60;99.90;;;;;;4973937;28;20455;-80
2022/06/29 02:50:05;;;;;;;23.80;22.30;;;17.60;99.90;;;;;;4973736;28;20448;-78
2022/06/29 02:52:31;;;;;;;22.50;21.00;;;17.50;99.90;;;;;;4973501;28;20447;-78
2022/06/29 02:54:58;;;;;;;21.37;20.27;;;17.50;99.90;;;;;;4973192;28;20491;-78
2022/06/29 02:57:25;;;;;;;22.50;21.30;;;17.40;99.90;;;;;;4973580;28;20973;-77
2022/06/29 02:59:52;;;;;;;23.00;21.50;;;17.40;99.90;;;;;;4973534;28;20813;-77
2022/06/29 03:02:18;;;;;;;22.63;20.83;;;17.40;99.90;;;;;;4973345;28;20452;-78
2022/06/29 03:04:47;;;;;;;23.27;21.70;;;17.40;99.90;;;;;;4973322;28;21005;-78
2022/06/29 03:07:13;;;;;;;24.73;23.03;;;17.40;99.90;;;;;;4973535;28;21212;-79
2022/06/29 03:09:40;;;;;;;23.53;21.93;;;17.30;99.90;;;;;;4973037;28;20479;-77
2022/06/29 03:12:07;;;;;;;23.47;21.87;;;17.30;99.90;;;;;;4973315;28;20458;-77
2022/06/29 03:14:34;;;;;;;23.60;22.10;;;17.30;99.90;;;;;;4973207;28;20487;-77
2022/06/29 03:17:00;;;;;;;24.17;22.63;;;17.30;99.90;;;;;;4973154;28;20463;-78
2022/06/29 03:19:27;;;;;;;24.60;23.10;;;17.30;99.90;;;;;;4972940;28;20452;-78
2022/06/29 03:21:55;;;;;;;22.43;21.23;;;17.30;99.90;;;;;;4973352;28;20483;-77
2022/06/29 03:24:22;;;;;;;22.20;20.90;;;17.30;99.90;;;;;;4973228;28;20450;-77
2022/06/29 03:26:48;;;;;;;22.83;21.47;;;17.30;99.90;;;;;;4973180;28;20456;-78
2022/06/29 03:29:15;;;;;;;23.73;22.23;;;17.30;99.90;;;;;;4972819;28;20451;-78
2022/06/29 03:31:42;;;;;;;21.70;20.43;;;17.40;99.90;;;;;;4973039;28;20487;-78
2022/06/29 03:34:08;;;;;;;24.77;23.00;;;17.30;99.90;;;;;;4972317;28;20495;-78
2022/06/29 03:36:35;;;;;;;21.43;20.33;;;17.40;99.90;;;;;;4972997;28;20456;-79
2022/06/29 03:39:04;;;;;;;24.57;23.13;;;17.40;99.90;;;;;;4972685;28;20471;-80
2022/06/29 03:41:30;;;;;;;24.33;22.60;;;17.40;99.90;;;;;;4972752;28;20511;-80
2022/06/29 03:43:57;;;;;;;24.60;22.70;;;17.50;99.90;;;;;;4972569;28;20447;-80
2022/06/29 03:46:24;;;;;;;24.50;22.80;;;17.40;99.90;;;;;;4972796;28;20456;-80
2022/06/29 03:48:50;;;;;;;24.73;22.97;;;17.40;99.90;;;;;;4972646;28;20463;-81
2022/06/29 03:51:17;;;;;;;23.70;22.30;;;17.40;99.90;;;;;;4972847;28;20815;-80
2022/06/29 03:53:44;;;;;;;22.93;21.53;;;17.50;99.90;;;;;;4972540;28;20490;-80
2022/06/29 03:56:12;;;;;;;22.80;21.40;;;17.50;99.90;;;;;;4972388;28;20467;-78
2022/06/29 03:58:40;;;;;;;22.37;21.07;;;17.40;99.90;;;;;;4972479;28;20448;-78
2022/06/29 04:01:07;;;;;;;24.67;22.87;;;17.40;99.90;;;;;;4972612;28;20552;-77
2022/06/29 04:03:33;;;;;;;24.63;23.10;;;17.30;99.90;;;;;;4972258;28;20454;-77
2022/06/29 04:06:00;;;;;;;24.07;22.57;;;17.40;99.90;;;;;;4972304;28;20953;-77
2022/06/29 04:08:27;;;;;;;24.87;23.27;;;17.40;99.90;;;;;;4972376;28;20821;-77
2022/06/29 04:10:53;;;;;;;24.23;22.70;;;17.50;99.90;;;;;;4972963;28;20451;-77
2022/06/29 04:13:22;;;;;;;24.20;22.70;;;17.50;99.90;;;;;;4973097;28;20458;-77
2022/06/29 04:15:49;;;;;;;23.27;21.83;;;17.60;99.90;;;;;;4972189;28;20455;-77
2022/06/29 04:18:15;;;;;;;23.27;21.97;;;17.60;99.90;;;;;;4971943;28;20447;-78
2022/06/29 04:23:26;;;;;;;23.77;22.37;;;17.70;99.90;;;;;;4972284;28;20427;-78
2022/06/29 04:25:53;;;;;;;23.20;21.80;;;17.80;99.90;;;;;;4972328;28;20871;-79
2022/06/29 04:28:21;;;;;;;21.73;20.63;;;18.00;99.90;;;;;;4972129;28;20486;-80
2022/06/29 04:30:48;;;;;;;21.97;20.70;;;18.20;99.90;;;;;;4972104;28;20471;-80
2022/06/29 04:33:14;;;;;;;20.83;19.57;;;18.30;99.90;;;;;;4972053;28;20501;-81
2022/06/29 04:35:41;;;;;;;22.13;20.77;;;18.50;99.90;;;;;;4981165;28;20502;-81
2022/06/29 04:38:08;;;;;;;21.60;20.50;;;18.70;99.90;;;;;;4972949;28;20455;-82
2022/06/29 04:40:34;;;;;;;20.90;19.67;;;18.80;99.90;;;;;;4975745;28;20463;-81
2022/06/29 04:43:01;;;;;;;20.30;19.20;;;19.00;99.90;;;;;;4994110;28;20455;-80
2022/06/29 04:48:13;;;;;;;22.10;20.80;;;19.00;99.90;;;;;;5000627;28;20458;-80
2022/06/29 04:50:40;;;;;;;21.53;20.43;;;18.80;99.90;;;;;;4976926;28;20969;-80
2022/06/29 04:53:07;;;;;;;21.07;19.90;;;18.70;99.90;;;;;;4977364;28;20455;-80
2022/06/29 04:55:33;;;;;;;21.33;20.00;;;18.90;99.90;;;;;;4975977;28;20491;-79
2022/06/29 04:58:00;;;;;;;20.70;19.70;;;19.20;99.90;;;;;;4976460;28;20452;-77
2022/06/29 05:00:29;;;;;;;20.97;19.77;;;19.20;99.90;;;;;;4984831;28;20479;-77
2022/06/29 05:02:56;;;;;;;20.90;19.70;;;19.00;99.90;;;;;;4996234;28;20446;-78
2022/06/29 05:05:22;;;;;;;21.80;20.60;;;18.80;99.90;;;;;;4994348;28;20454;-79
2022/06/29 05:07:49;;;;;;;21.73;20.60;;;18.70;99.90;;;;;;4994668;28;20457;-80
2022/06/29 05:10:15;;;;;;;21.87;20.70;;;18.70;99.90;;;;;;4997315;28;20447;-79
2022/06/29 05:12:42;;;;;;;22.37;21.00;;;18.60;99.90;;;;;;4996817;28;20455;-79
2022/06/29 05:15:10;;;;;;;22.60;21.30;;;18.50;99.90;;;;;;4997373;28;21023;-79
2022/06/29 05:17:39;;;;;;;22.63;21.03;;;18.50;99.90;;;;;;4998018;28;20438;-78
2022/06/29 05:20:07;;;;;;;22.17;20.67;;;18.40;99.90;;;;;;4998083;28;20816;-79
2022/06/29 05:22:34;;;;;;;23.40;22.10;;;18.40;99.90;;;;;;4997935;28;20507;-79
2022/06/29 05:25:01;;;;;;;25.17;23.47;;;18.40;99.90;;;;;;4994417;28;20454;-79
2022/06/29 05:27:28;;;;;;;21.83;20.53;;;18.40;99.90;;;;;;4999329;28;20458;-80
2022/06/29 05:29:55;;;;;;;22.57;21.27;;;18.40;99.90;;;;;;4996243;28;20462;-79
2022/06/29 05:32:24;;;;;;;22.50;21.40;;;18.40;99.90;;;;;;4997579;28;20478;-80
2022/06/29 05:34:52;;;;;;;23.50;22.20;;;18.40;99.90;;;;;;4999233;28;20489;-79
2022/06/29 05:37:19;;;;;;;21.87;20.67;;;18.40;99.90;;;;;;5002039;28;20462;-78
2022/06/29 05:39:46;;;;;;;21.90;20.40;;;18.40;99.90;;;;;;5000643;28;20446;-80
2022/06/29 05:42:13;;;;;;;22.63;21.33;;;18.50;99.90;;;;;;5000766;28;20476;-81
2022/06/29 05:44:40;;;;;;;22.40;21.10;;;18.50;99.90;;;;;;5000475;28;20451;-80
2022/06/29 05:47:08;;;;;;;23.40;22.10;;;18.50;99.90;;;;;;5005887;28;20449;-80
2022/06/29 05:49:34;;;;;;;23.70;21.90;;;18.40;99.90;;;;;;5002468;28;20486;-80
2022/06/29 05:52:03;;;;;;;21.67;20.47;;;18.50;99.90;;;;;;5004819;28;20455;-80
2022/06/29 05:54:30;;;;;;;22.10;20.90;;;18.50;99.90;;;;;;5004731;28;20489;-79
2022/06/29 05:56:56;;;;;;;21.50;20.20;;;18.50;99.90;;;;;;5003401;28;20475;-80
2022/06/29 05:59:23;;;;;;;23.17;21.63;;;18.50;99.90;;;;;;5000880;28;20450;-78
2022/06/29 06:01:50;;;;;;;21.50;20.20;;;18.50;99.90;;;;;;5005919;28;20458;-80
2022/06/29 06:04:17;;;;;;;21.53;20.13;;;18.70;99.90;;;;;;5002039;28;20445;-80
2022/06/29 06:06:43;;;;;;;22.20;20.90;;;18.90;99.90;;;;;;5003500;28;20451;-79
2022/06/29 06:09:11;;;;;;;22.83;21.30;;;19.00;99.90;;;;;;4998129;28;20466;-79
2022/06/29 06:11:38;;;;;;;24.50;22.00;;;19.00;99.90;;;;;;4999767;28;20478;-79
2022/06/29 06:14:05;;;;;;;22.83;21.50;;;18.90;99.90;;;;;;4999385;28;20542;-79
2022/06/29 06:16:32;;;;;;;22.50;21.20;;;18.90;99.90;;;;;;4998488;28;20447;-78
2022/06/29 06:18:58;;;;;;;21.80;20.60;;;18.90;99.90;;;;;;4999114;28;20447;-79
2022/06/29 06:21:25;;;;;;;22.70;21.17;;;18.80;99.90;;;;;;4996237;28;20810;-80
2022/06/29 06:23:52;;;;;;;24.37;22.57;;;18.90;99.90;;;;;;4994553;28;20452;-80
2022/06/29 06:26:20;;;;;;;24.83;22.80;;;19.00;99.90;;;;;;4978635;28;20511;-79
2022/06/29 06:28:47;;;;;;;24.17;22.00;;;19.20;99.90;;;;;;4977074;28;20459;-80
2022/06/29 06:31:13;;;;;;;26.80;23.73;;;19.40;99.90;;;;;;4977449;28;20476;-82
2022/06/29 06:33:41;;;;;;;21.87;20.67;;;19.50;99.90;;;;;;4974655;28;20479;-83
2022/06/29 06:36:08;;;;;;;22.00;20.60;;;19.50;99.90;;;;;;4980079;28;20510;-80
2022/06/29 06:38:34;;;;;;;22.40;21.20;;;19.60;99.90;;;;;;4978271;28;20452;-79
2022/06/29 06:43:47;;;;;;;21.03;19.80;;;19.50;99.90;;;;;;4976325;28;20431;-80
2022/06/29 06:46:13;;;;;;;21.63;20.47;;;19.40;99.90;;;;;;4978237;28;20444;-83
2022/06/29 06:48:40;;;;;;;20.53;19.53;;;19.50;99.90;;;;;;4978763;28;20464;-84
2022/06/29 06:51:07;;;;;;;21.40;20.00;;;19.60;99.90;;;;;;4977700;28;20448;-83
2022/06/29 06:53:33;;;;;;;19.17;18.10;;;19.90;99.90;;;;;;4981101;28;20444;-86
2022/06/29 06:56:00;;;;;;;19.73;18.43;;;20.30;99.90;;;;;;4975486;28;20500;-80
2022/06/29 06:58:27;;;;;;;18.53;17.63;;;21.10;99.90;;;;;;4978625;28;20459;-79
2022/06/29 07:00:55;;;;;;;19.07;17.77;;;21.90;99.90;;;;;;4975710;28;20458;-81
2022/06/29 07:03:21;;;;;;;17.60;16.70;;;22.60;99.90;;;;;;4978274;28;20481;-82
2022/06/29 07:05:48;;;;;;;18.93;17.80;;;22.90;99.90;;;;;;4976990;28;20467;-82
2022/06/29 07:08:15;;;;;;;19.47;18.17;;;23.30;99.90;;;;;;4983626;28;20456;-82
2022/06/29 07:10:42;;;;;;;17.33;16.23;;;23.60;99.90;;;;;;4976021;28;20462;-82
2022/06/29 07:13:08;;;;;;;17.53;16.73;;;24.20;99.90;;;;;;4975892;28;20455;-83
2022/06/29 07:15:35;;;;;;;19.30;18.30;;;24.40;99.90;;;;;;4974613;28;20488;-81
2022/06/29 07:18:03;;;;;;;18.17;16.97;;;24.60;99.90;;;;;;4993005;28;20486;-82
2022/06/29 07:20:31;;;;;;;18.13;17.13;;;24.70;99.90;;;;;;4994947;28;20461;-82
2022/06/29 07:22:58;;;;;;;17.37;16.63;;;25.00;99.90;;;;;;4995479;28;20451;-82
2022/06/29 07:25:24;;;;;;;17.93;16.90;;;25.30;99.90;;;;;;4994465;28;21011;-80
2022/06/29 07:27:51;;;;;;;17.83;16.63;;;25.50;99.90;;;;;;4977048;28;20463;-78
2022/06/29 07:30:18;;;;;;;18.27;17.37;;;25.50;99.90;;;;;;4973583;28;20451;-75
2022/06/29 07:32:44;;;;;;;18.27;17.27;;;25.50;99.90;;;;;;4972372;28;20502;-76
2022/06/29 07:35:13;;;;;;;19.67;18.57;;;26.00;99.90;;;;;;4973357;28;20571;-75
2022/06/29 07:37:39;;;;;;;18.03;16.93;;;26.40;99.90;;;;;;4973890;28;20455;-77
2022/06/29 07:40:07;;;;;;;17.50;16.43;;;26.60;99.90;;;;;;4973812;28;20459;-76
2022/06/29 07:42:35;;;;;;;19.60;18.17;;;26.70;99.90;;;;;;4973088;28;20456;-76
2022/06/29 07:45:02;;;;;;;17.80;16.83;;;26.70;99.90;;;;;;4972107;28;20452;-76
2022/06/29 07:47:29;;;;;;;17.53;16.70;;;27.00;99.90;;;;;;4973022;28;20456;-77
2022/06/29 07:49:55;;;;;;;17.87;16.80;;;26.90;99.90;;;;;;4973371;28;20460;-76
2022/06/29 07:52:23;;;;;;;16.70;15.90;;;26.90;99.90;;;;;;4972771;28;20945;-76
2022/06/29 07:54:50;;;;;;;18.30;17.37;;;27.50;99.90;;;;;;4973842;28;20487;-76
2022/06/29 07:57:17;;;;;;;17.03;16.23;;;28.00;99.10;;;;;;4972854;28;20961;-76
2022/06/29 07:59:46;;;;;;;17.97;17.17;;;28.40;98.40;;;;;;4972782;28;20463;-77
2022/06/29 08:02:12;;;;;;;17.80;17.00;;;28.70;96.70;;;;;;4975287;28;20531;-77
2022/06/29 08:04:39;;;;;;;17.50;16.80;;;29.40;95.90;;;;;;4973192;28;20446;-77
2022/06/29 08:07:06;;;;;;;18.43;17.57;;;29.80;94.50;;;;;;4974037;28;20487;-77
2022/06/29 08:09:34;;;;;;;18.90;17.90;;;30.40;93.20;;;;;;4973262;28;20483;-76
2022/06/29 08:12:02;;;;;;;17.40;16.50;;;30.60;92.20;;;;;;4974076;28;20448;-77
2022/06/29 08:14:29;;;;;;;16.07;15.37;;;30.90;91.00;;;;;;4972418;28;20455;-77
2022/06/29 08:16:56;;;;;;;17.87;16.93;;;31.00;90.90;;;;;;4973797;28;20451;-78
2022/06/29 08:19:22;;;;;;;19.17;17.93;;;31.10;90.70;;;;;;4972493;28;20451;-76
2022/06/29 08:21:49;;;;;;;17.30;16.50;;;31.20;89.10;;;;;;4972361;28;20478;-77
2022/06/29 08:24:16;;;;;;;17.33;16.20;;;30.70;90.50;;;;;;4973115;28;20518;-77
2022/06/29 08:26:44;;;;;;;17.60;16.90;;;30.80;90.90;;;;;;4974401;28;20456;-78
2022/06/29 08:29:11;;;;;;;18.30;17.40;;;31.60;88.00;;;;;;4974153;28;20460;-78
2022/06/29 08:31:38;;;;;;;16.90;15.90;;;31.40;88.70;;;;;;4973383;28;20478;-76
2022/06/29 08:34:05;;;;;;;18.73;17.83;;;31.50;87.40;;;;;;4974129;28;20550;-76
2022/06/29 08:36:31;;;;;;;16.70;16.00;;;31.50;87.70;;;;;;4972881;28;20515;-76
2022/06/29 08:39:00;;;;;;;18.13;17.33;;;32.30;85.70;;;;;;4973995;28;20452;-76
2022/06/29 08:41:28;;;;;;;18.53;17.73;;;32.50;83.60;;;;;;4973527;28;20822;-77
2022/06/29 08:44:00;;;;;;;17.10;16.40;;;32.30;83.30;;;;;;4971162;28;20455;-77
2022/06/29 08:46:26;;;;;;;17.27;16.47;;;32.40;80.40;;;;;;4970946;28;20551;-78
2022/06/29 08:48:53;;;;;;;15.43;14.83;;;32.30;78.80;;;;;;4971405;28;20564;-77
2022/06/29 08:51:22;;;;;;;18.10;17.30;;;33.00;78.70;;;;;;4970859;28;20455;-77
2022/06/29 08:53:50;;;;;;;16.50;15.60;;;32.70;79.00;;;;;;4971029;28;20515;-77
2022/06/29 08:56:19;;;;;;;18.40;17.50;;;31.30;82.20;;;;;;4971146;28;20507;-77
2022/06/29 08:58:51;;;;;;;16.07;15.27;;;31.00;84.80;;;;;;4971641;28;20487;-76
2022/06/29 09:01:19;;;;;;;15.57;14.87;;;30.60;86.50;;;;;;4971783;28;20462;-76
2022/06/29 09:03:46;;;;;;;16.90;16.10;;;30.70;86.20;;;;;;4970621;28;20483;-76
2022/06/29 09:06:13;;;;;;;18.73;17.77;;;31.30;85.00;;;;;;4971350;28;20461;-77
2022/06/29 09:08:39;;;;;;;17.40;16.70;;;31.40;84.60;;;;;;4971615;28;20443;-77
2022/06/29 09:11:23;;;;;;;17.00;16.30;;;31.10;84.80;;;;;;4971266;28;20455;-76
2022/06/29 09:14:08;;;;;;;17.40;16.70;;;31.20;83.00;;;;;;4971173;28;20485;-76
2022/06/29 09:17:00;;;;;;;16.90;16.20;;;31.70;80.70;;;;;;4971127;28;20582;-76
2022/06/29 09:19:29;;;;;;;17.23;16.13;;;32.00;81.50;;;;;;4971052;28;20451;-75
2022/06/29 09:21:58;;;;;;;18.30;17.50;;;32.30;80.80;;;;;;4970816;28;20459;-76
2022/06/29 09:24:26;;;;;;;17.27;16.23;;;32.10;80.90;;;;;;4970966;28;20459;-76
2022/06/29 09:26:55;;;;;;;16.70;16.00;;;32.20;80.60;;;;;;4970907;28;20448;-75
2022/06/29 09:29:24;;;;;;;16.50;15.70;;;31.90;79.70;;;;;;4970984;28;20455;-76
2022/06/29 09:32:15;;;;;;;17.90;17.00;;;31.90;81.30;;;;;;4971277;28;20985;-77
2022/06/29 09:34:44;;;;;;;17.60;16.80;;;32.80;77.10;;;;;;4974453;28;20451;-76
2022/06/29 09:37:13;;;;;;;16.53;15.83;;;33.30;75.90;;;;;;4974112;28;20491;-77
2022/06/29 09:39:42;;;;;;;17.83;16.93;;;33.70;75.00;;;;;;4974622;28;20455;-76
2022/06/29 09:42:10;;;;;;;17.13;16.43;;;33.60;74.80;;;;;;4974125;28;20961;-76
2022/06/29 09:44:37;;;;;;;16.00;15.30;;;33.70;74.10;;;;;;4974259;28;20459;-75
2022/06/29 09:47:06;;;;;;;17.43;16.37;;;33.30;75.30;;;;;;4974370;28;20452;-77
2022/06/29 09:49:36;;;;;;;17.17;16.37;;;33.80;73.80;;;;;;4974468;28;20480;-77
2022/06/29 09:52:05;;;;;;;17.43;16.63;;;34.50;71.70;;;;;;4974861;28;20463;-79
2022/06/29 09:54:33;;;;;;;18.20;17.50;;;35.70;69.60;;;;;;4974062;28;20602;-78
2022/06/29 09:57:01;;;;;;;17.57;16.80;;;35.40;68.60;;;;;;4973978;28;20490;-78
2022/06/29 10:02:36;;;;;;;17.00;16.10;;;34.60;70.40;;;;;;4973993;28;20439;-78
2022/06/29 10:05:08;;;;;;;17.90;16.60;;;34.90;69.60;;;;;;4974253;28;20463;-77
2022/06/29 10:07:37;;;;;;;16.53;15.80;;;36.10;66.50;;;;;;4973893;28;20873;-78
2022/06/29 10:10:07;;;;;;;16.80;16.00;;;37.00;63.70;;;;;;4974049;28;20459;-78
2022/06/29 10:16:08;;;;;;;16.00;15.40;;;36.70;62.40;;;;;;4973714;28;21124;-76
2022/06/29 10:18:56;;;;;;;16.20;15.60;;;36.10;63.50;;;;;;4973437;28;20451;-78
2022/06/29 10:21:28;;;;;;;18.53;17.70;;;35.40;63.20;;;;;;4973464;28;20459;-79
2022/06/29 10:23:56;;;;;;;16.77;15.80;;;34.20;67.10;;;;;;4973449;28;20563;-77
2022/06/29 10:26:40;;;;;;;16.77;16.00;;;33.40;69.60;;;;;;4973279;28;20448;-77
2022/06/29 10:29:34;;;;;;;16.37;15.47;;;33.10;72.20;;;;;;4972964;28;20474;-77
2022/06/29 10:32:16;;;;;;;16.80;16.00;;;32.90;72.50;;;;;;4973050;28;20475;-77
2022/06/29 10:37:30;;;;;;;17.87;17.17;;;31.20;77.70;;;;;;4959426;28;20551;-78
2022/06/29 10:40:00;;;;;;;17.87;17.00;;;30.50;80.10;;;;;;4973019;28;20479;-77
2022/06/29 10:45:34;;;;;;;16.40;15.70;;;30.30;82.50;;;;;;4973001;28;20431;-77
2022/06/29 10:48:15;;;;;;;16.80;15.90;;;30.50;82.40;;;;;;4973606;28;20459;-75
2022/06/29 10:50:44;;;;;;;17.10;16.13;;;30.70;83.20;;;;;;4973474;28;20459;-76
2022/06/29 10:53:13;;;;;;;16.80;16.00;;;30.80;82.50;;;;;;4975451;28;20460;-76
2022/06/29 10:55:41;;;;;;;17.10;16.20;;;30.70;83.40;;;;;;4973070;28;20539;-77
2022/06/29 10:58:08;;;;;;;17.60;16.80;;;30.50;85.00;;;;;;4973492;28;20459;-78
2022/06/29 11:00:38;;;;;;;16.60;15.80;;;30.20;86.50;;;;;;4973012;28;20938;-77
2022/06/29 11:03:10;;;;;;;15.97;15.17;;;30.10;87.90;;;;;;4972796;28;21037;-78
2022/06/29 11:12:01;;;;;;;17.03;16.03;;;30.30;88.20;;;;;;4972954;28;20466;-78
2022/06/29 11:13:58;;;;;;;17.03;16.10;;;30.20;87.00;;;;;;4973605;28;20572;-77
2022/06/29 11:16:32;;;;;;;17.07;16.17;;;30.50;87.50;;;;;;4973053;28;20523;-77
2022/06/29 11:18:59;;;;;;;15.90;15.20;;;30.70;86.20;;;;;;4972774;28;20451;-77
2022/06/29 11:21:28;;;;;;;15.40;14.70;;;30.70;86.70;;;;;;4972239;28;20459;-77
2022/06/29 11:23:58;;;;;;;17.30;16.50;;;30.90;85.50;;;;;;4972324;28;20444;-77
2022/06/29 11:26:27;;;;;;;18.03;16.40;;;31.10;85.20;;;;;;4972215;28;20951;-77
2022/06/29 11:28:54;;;;;;;16.00;15.20;;;31.30;84.30;;;;;;4972325;28;20962;-77
2022/06/29 11:31:22;;;;;;;15.07;14.37;;;31.80;83.10;;;;;;4972222;28;20480;-77
2022/06/29 11:33:50;;;;;;;16.50;15.70;;;32.20;81.20;;;;;;4971874;28;21073;-77
2022/06/29 11:36:19;;;;;;;15.87;14.97;;;32.50;79.60;;;;;;4971671;28;20491;-78
2022/06/29 11:38:47;;;;;;;15.50;14.90;;;32.60;79.20;;;;;;4971897;28;20452;-78
2022/06/29 11:41:17;;;;;;;16.23;15.30;;;32.60;78.60;;;;;;4972053;28;20459;-77
2022/06/29 11:43:44;;;;;;;14.93;14.30;;;33.00;77.00;;;;;;4971999;28;20458;-76
2022/06/29 11:46:19;;;;;;;17.27;16.57;;;32.70;77.30;;;;;;4971740;28;20448;-77
2022/06/29 11:51:30;;;;;;;15.80;14.87;;;32.80;77.60;;;;;;4970637;28;20432;-77
2022/06/29 11:54:01;;;;;;;16.60;15.80;;;32.20;78.60;;;;;;4971666;28;20455;-77
2022/06/29 11:56:32;;;;;;;17.67;16.77;;;33.00;77.90;;;;;;4971160;28;20854;-77
2022/06/29 11:59:04;;;;;;;16.83;15.90;;;33.50;76.70;;;;;;4971724;28;20938;-78
2022/06/29 12:01:31;;;;;;;15.40;14.50;;;33.60;75.60;;;;;;4971528;28;20447;-77
2022/06/29 12:03:59;;;;;;;15.93;15.23;;;33.60;74.10;;;;;;4971621;28;20455;-77
2022/06/29 12:06:28;;;;;;;16.90;15.97;;;33.80;73.10;;;;;;4971649;28;20458;-77
2022/06/29 12:08:55;;;;;;;17.73;16.93;;;34.20;71.90;;;;;;4971732;28;20455;-78
2022/06/29 12:11:23;;;;;;;16.30;15.50;;;34.70;69.70;;;;;;4971556;28;20789;-78
2022/06/29 12:13:51;;;;;;;15.80;15.00;;;35.20;68.50;;;;;;4971503;28;20918;-78
2022/06/29 12:16:18;;;;;;;16.90;16.00;;;35.70;67.50;;;;;;4971382;28;20575;-77
2022/06/29 12:18:45;;;;;;;16.50;15.50;;;35.10;67.20;;;;;;4971407;28;20485;-78
2022/06/29 12:21:12;;;;;;;15.63;14.73;;;34.50;69.20;;;;;;4971301;28;20455;-78
2022/06/29 12:23:39;;;;;;;15.97;15.27;;;34.30;70.10;;;;;;4971578;28;20471;-79
2022/06/29 12:26:08;;;;;;;17.33;16.53;;;34.80;69.60;;;;;;4971322;28;20451;-77
2022/06/29 12:28:37;;;;;;;16.47;15.53;;;34.60;66.80;;;;;;4971299;28;20555;-79
2022/06/29 12:31:06;;;;;;;16.20;15.40;;;34.90;68.80;;;;;;4971282;28;20478;-79
2022/06/29 12:33:33;;;;;;;16.67;15.60;;;35.80;66.00;;;;;;4971024;28;20510;-79
2022/06/29 12:35:59;;;;;;;17.17;16.27;;;35.90;66.30;;;;;;4971351;28;20443;-80
2022/06/29 12:38:26;;;;;;;17.67;16.67;;;36.80;65.40;;;;;;4971296;28;20457;-80
2022/06/29 12:40:53;;;;;;;16.53;15.70;;;37.40;62.20;;;;;;4971418;28;20552;-79
2022/06/29 12:43:19;;;;;;;17.30;16.40;;;37.70;61.20;;;;;;4971124;28;20514;-79
2022/06/29 12:45:46;;;;;;;17.17;16.37;;;37.70;60.00;;;;;;4971118;28;20503;-80
2022/06/29 12:48:14;;;;;;;18.57;17.70;;;37.70;59.00;;;;;;4970904;28;20919;-79
2022/06/29 12:50:42;;;;;;;17.63;16.77;;;38.00;59.40;;;;;;4971172;28;20846;-79
2022/06/29 12:53:08;;;;;;;17.00;16.20;;;38.00;59.70;;;;;;4971270;28;20455;-80
2022/06/29 12:55:35;;;;;;;17.20;16.40;;;38.60;58.40;;;;;;4970949;28;20460;-79
2022/06/29 12:58:02;;;;;;;17.87;16.97;;;38.60;57.90;;;;;;4970908;28;21295;-79
2022/06/29 13:00:28;;;;;;;17.40;16.60;;;38.40;58.00;;;;;;4971151;28;20859;-78
2022/06/29 13:02:56;;;;;;;17.60;16.90;;;38.40;56.30;;;;;;4971187;28;20543;-79